createdAt,value
2023-03-15T00:00:01.044Z,3.50
2023-03-15T00:03:02.794Z,3.60
2023-03-15T00:06:04.844Z,3.70
2023-03-15T00:09:06.620Z,3.80
2023-03-15T00:12:08.611Z,5.80
2023-03-15T00:15:13.982Z,6.30
2023-03-15T00:18:16.669Z,6.80
2023-03-15T00:21:18.197Z,8.20
2023-03-15T00:27:21.231Z,8.20
2023-03-15T00:30:22.874Z,7.50
2023-03-15T00:33:24.374Z,8.50
2023-03-15T00:39:27.759Z,7.20
2023-03-15T00:42:29.527Z,6.60
2023-03-15T00:45:31.206Z,6.70
2023-03-15T00:48:34.034Z,6.90
2023-03-15T00:51:35.585Z,5.80
2023-03-15T00:54:37.214Z,4.80
2023-03-15T00:57:40.641Z,5.10
2023-03-15T01:00:42.428Z,5.00
2023-03-15T01:03:45.719Z,5.80
2023-03-15T01:06:47.427Z,6.50
2023-03-15T01:09:49.217Z,5.80
2023-03-15T01:12:51.035Z,7.10
2023-03-15T01:15:52.630Z,7.40
2023-03-15T01:18:54.586Z,11.60
2023-03-15T01:21:56.567Z,14.60
2023-03-15T01:25:01.210Z,18.50
2023-03-15T01:31:18.521Z,19.30
2023-03-15T01:34:20.713Z,16.70
2023-03-15T01:37:22.336Z,15.30
2023-03-15T01:40:24.026Z,7.10
2023-03-15T01:43:27.717Z,4.40
2023-03-15T01:46:31.337Z,3.70
2023-03-15T01:49:33.531Z,3.80
2023-03-15T01:52:38.001Z,4.10
2023-03-15T01:55:40.438Z,3.40
2023-03-15T01:58:43.775Z,3.20
2023-03-15T02:01:46.000Z,3.40
2023-03-15T02:05:00.458Z,3.60
2023-03-15T02:08:02.722Z,2.90
2023-03-15T02:11:05.538Z,2.90
2023-03-15T02:14:10.014Z,3.00
2023-03-15T02:17:11.941Z,2.70
2023-03-15T02:20:36.532Z,3.20
2023-03-15T02:23:38.503Z,2.90
2023-03-15T02:26:44.453Z,3.30
2023-03-15T02:29:46.082Z,3.60
2023-03-15T02:35:49.471Z,2.90
2023-03-15T02:38:52.378Z,2.60
2023-03-15T02:41:56.549Z,3.10
2023-03-15T02:44:58.235Z,3.20
2023-03-15T02:54:03.389Z,3.70
2023-03-15T03:00:07.655Z,3.70
2023-03-15T03:03:09.288Z,4.10
2023-03-15T03:06:12.305Z,4.00
2023-03-15T03:09:13.876Z,4.00
2023-03-15T03:12:15.479Z,4.40
2023-03-15T03:15:17.211Z,4.00
2023-03-15T03:21:20.309Z,4.00
2023-03-15T03:24:21.896Z,4.20
2023-03-15T03:27:23.587Z,4.20
2023-03-15T03:30:25.193Z,3.80
2023-03-15T03:33:26.784Z,3.90
2023-03-15T03:39:30.046Z,3.90
2023-03-15T03:45:33.289Z,4.20
2023-03-15T03:48:35.324Z,4.40
2023-03-15T03:51:36.951Z,4.30
2023-03-15T03:57:43.618Z,5.10
2023-03-15T04:00:45.388Z,4.80
2023-03-15T04:03:47.003Z,4.80
2023-03-15T04:06:48.590Z,6.00
2023-03-15T04:09:50.189Z,6.20
2023-03-15T04:12:51.725Z,5.90
2023-03-15T04:15:53.353Z,5.30
2023-03-15T04:18:55.020Z,5.60
2023-03-15T04:24:58.325Z,5.30
2023-03-15T04:27:59.907Z,5.70
2023-03-15T04:34:03.939Z,5.40
2023-03-15T04:37:06.067Z,4.80
2023-03-15T04:40:08.602Z,5.10
2023-03-15T04:43:10.266Z,5.70
2023-03-15T04:49:13.355Z,5.20
2023-03-15T04:52:14.930Z,5.40
2023-03-15T05:01:23.373Z,4.80
2023-03-15T05:04:25.012Z,5.60
2023-03-15T05:10:28.076Z,5.70
2023-03-15T05:13:30.137Z,5.40
2023-03-15T05:16:31.758Z,6.10
2023-03-15T05:22:35.137Z,5.70
2023-03-15T05:25:38.642Z,5.00
2023-03-15T05:28:40.640Z,4.90
2023-03-15T05:37:45.772Z,4.90
2023-03-15T05:40:47.406Z,6.00
2023-03-15T05:43:49.179Z,6.80
2023-03-15T05:49:52.545Z,6.00
2023-03-15T05:55:56.269Z,6.50
2023-03-15T05:58:57.863Z,6.00
2023-03-15T06:01:59.662Z,5.90
2023-03-15T06:08:02.963Z,6.90
2023-03-15T06:14:06.250Z,5.70
2023-03-15T06:17:08.004Z,7.00
2023-03-15T06:26:13.184Z,6.40
2023-03-15T06:29:15.798Z,6.40
2023-03-15T06:32:17.831Z,5.90
2023-03-15T06:35:19.598Z,5.50
2023-03-15T06:41:22.682Z,5.80
2023-03-15T06:44:24.253Z,5.60
2023-03-15T06:47:25.974Z,5.60
2023-03-15T06:53:36.338Z,6.20
2023-03-15T06:56:37.970Z,6.50
2023-03-15T07:02:41.145Z,6.30
2023-03-15T07:05:42.914Z,6.20
2023-03-15T07:11:46.349Z,6.20
2023-03-15T07:14:47.949Z,5.30
2023-03-15T07:17:49.565Z,5.60
2023-03-15T07:23:59.426Z,5.80
2023-03-15T07:27:01.286Z,6.40
2023-03-15T07:30:04.601Z,5.50
2023-03-15T07:33:06.341Z,5.30
2023-03-15T07:36:09.017Z,6.60
2023-03-15T07:39:10.575Z,6.00
2023-03-15T07:45:13.976Z,5.50
2023-03-15T07:48:15.656Z,5.90
2023-03-15T07:54:18.921Z,5.30
2023-03-15T07:57:20.542Z,5.10
2023-03-15T08:00:22.447Z,5.50
2023-03-15T08:03:24.814Z,5.50
2023-03-15T08:06:26.345Z,5.40
2023-03-15T08:09:28.027Z,5.10
2023-03-15T08:12:29.671Z,5.20
2023-03-15T08:15:31.351Z,5.70
2023-03-15T08:18:33.066Z,6.00
2023-03-15T08:24:36.301Z,5.50
2023-03-15T08:30:40.884Z,7.50
2023-03-15T08:33:42.727Z,4.90
2023-03-15T08:36:46.789Z,12.20
2023-03-15T08:39:48.365Z,7.00
2023-03-15T08:46:00.742Z,5.50
2023-03-15T08:49:03.072Z,5.70
2023-03-15T08:55:07.121Z,5.20
2023-03-15T08:58:08.992Z,5.50
2023-03-15T09:01:14.616Z,5.50
2023-03-15T09:04:16.347Z,5.60
2023-03-15T09:07:18.023Z,6.30
2023-03-15T09:10:20.512Z,12.30
2023-03-15T09:13:22.587Z,7.10
2023-03-15T09:16:24.295Z,6.70
2023-03-15T09:22:39.104Z,5.60
2023-03-15T09:25:41.769Z,5.90
2023-03-15T09:28:43.456Z,6.60
2023-03-15T09:34:46.818Z,5.90
2023-03-15T09:37:49.875Z,6.40
2023-03-15T09:40:56.558Z,6.30
2023-03-15T09:44:07.050Z,5.60
2023-03-15T09:47:15.769Z,5.90
2023-03-15T09:50:31.305Z,5.20
2023-03-15T09:54:05.357Z,5.00
2023-03-15T09:57:15.068Z,5.00
2023-03-15T10:00:23.990Z,5.80
2023-03-15T10:03:48.424Z,5.10
2023-03-15T10:06:54.813Z,5.00
2023-03-15T10:09:56.320Z,5.40
2023-03-15T10:19:50.115Z,4.30
2023-03-15T10:23:09.232Z,5.90
2023-03-15T10:26:15.682Z,5.40
2023-03-15T10:29:20.658Z,5.50
2023-03-15T10:32:26.996Z,5.30
2023-03-15T10:35:29.123Z,6.00
2023-03-15T10:38:30.680Z,5.20
2023-03-15T10:44:44.534Z,5.10
2023-03-15T10:47:57.649Z,5.10
2023-03-15T10:51:06.361Z,5.60
2023-03-15T10:54:21.324Z,4.30
2023-03-15T10:57:26.384Z,4.00
2023-03-15T11:00:34.916Z,5.50
2023-03-15T11:03:37.997Z,4.70
2023-03-15T11:06:57.851Z,4.70
2023-03-15T11:10:01.401Z,4.40
2023-03-15T11:13:14.553Z,4.80
2023-03-15T11:16:16.141Z,4.40
2023-03-15T11:22:20.210Z,5.10
2023-03-15T11:25:24.930Z,5.40
2023-03-15T11:28:30.088Z,5.00
2023-03-15T11:31:31.912Z,5.70
2023-03-15T11:34:39.247Z,4.50
2023-03-15T11:37:58.518Z,5.60
2023-03-15T11:41:34.846Z,4.90
2023-03-15T11:44:45.026Z,4.50
2023-03-15T11:47:51.798Z,4.70
2023-03-15T11:50:58.092Z,4.70
2023-03-15T11:54:12.554Z,3.80
2023-03-15T11:57:29.714Z,4.40
2023-03-15T12:00:31.284Z,4.60
2023-03-15T12:03:41.585Z,4.20
2023-03-15T12:06:43.182Z,4.40
2023-03-15T12:10:03.313Z,4.40
2023-03-15T12:13:18.736Z,4.40
2023-03-15T12:16:22.099Z,4.30
2023-03-15T12:19:25.193Z,4.30
2023-03-15T12:22:31.390Z,4.80
2023-03-15T12:25:49.010Z,4.30
2023-03-15T12:29:00.399Z,4.20
2023-03-15T12:32:02.151Z,4.30
2023-03-15T12:35:16.656Z,4.50
2023-03-15T12:38:20.714Z,4.70
2023-03-15T12:41:43.395Z,3.90
2023-03-15T12:44:45.036Z,4.50
2023-03-15T12:47:49.484Z,4.50
2023-03-15T12:50:59.012Z,5.00
2023-03-15T12:54:00.754Z,5.00
2023-03-15T12:57:04.341Z,4.60
2023-03-15T13:00:26.996Z,4.60
2023-03-15T13:03:28.559Z,4.70
2023-03-15T13:06:51.817Z,4.60
2023-03-15T13:10:00.345Z,4.60
2023-03-15T13:13:23.185Z,4.70
2023-03-15T13:16:42.696Z,4.60
2023-03-15T13:19:46.967Z,4.50
2023-03-15T13:23:07.053Z,4.70
2023-03-15T13:26:08.727Z,4.00
2023-03-15T13:29:14.092Z,4.70
2023-03-15T13:32:18.448Z,5.10
2023-03-15T13:35:20.209Z,4.10
2023-03-15T13:38:28.433Z,4.20
2023-03-15T13:41:30.931Z,3.80
2023-03-15T13:44:33.381Z,4.00
2023-03-15T13:47:35.472Z,3.70
2023-03-15T13:50:37.970Z,4.50
2023-03-15T13:53:49.437Z,3.90
2023-03-15T13:57:17.396Z,3.70
2023-03-15T14:00:19.464Z,3.90
2023-03-15T14:03:22.063Z,3.80
2023-03-15T14:06:26.025Z,3.70
2023-03-15T14:09:27.784Z,3.80
2023-03-15T14:12:30.437Z,4.20
2023-03-15T14:15:42.350Z,3.90
2023-03-15T14:18:44.018Z,3.80
2023-03-15T14:21:48.353Z,3.80
2023-03-15T14:24:51.773Z,4.40
2023-03-15T14:27:53.970Z,3.60
2023-03-15T14:30:57.988Z,4.00
2023-03-15T14:34:10.913Z,3.90
2023-03-15T14:37:39.340Z,4.10
2023-03-15T14:40:41.554Z,4.10
2023-03-15T14:43:43.133Z,4.00
2023-03-15T14:49:46.178Z,3.90
2023-03-15T14:52:48.617Z,4.70
2023-03-15T14:55:50.236Z,4.70
2023-03-15T15:01:55.818Z,4.20
2023-03-15T15:04:57.418Z,3.90
2023-03-15T15:08:11.851Z,4.70
2023-03-15T15:11:14.597Z,4.00
2023-03-15T15:14:16.674Z,4.60
2023-03-15T15:17:18.363Z,4.50
2023-03-15T15:26:25.639Z,4.30
2023-03-15T15:29:27.377Z,4.40
2023-03-15T15:32:28.992Z,4.40
2023-03-15T15:41:34.856Z,4.90
2023-03-15T15:47:38.013Z,4.60
2023-03-15T15:53:41.099Z,6.20
2023-03-15T15:59:47.784Z,16.90
2023-03-15T16:02:50.427Z,10.00
2023-03-15T16:05:52.105Z,6.10
2023-03-15T16:08:54.365Z,7.30
2023-03-15T16:11:55.969Z,5.70
2023-03-15T16:14:57.638Z,5.40
2023-03-15T16:18:01.834Z,6.10
2023-03-15T16:21:03.936Z,5.00
2023-03-15T16:27:08.311Z,5.70
2023-03-15T16:30:21.484Z,5.70
2023-03-15T16:33:23.289Z,5.80
2023-03-15T16:36:24.834Z,5.40
2023-03-15T16:39:26.683Z,5.50
2023-03-15T16:45:29.963Z,16.40
2023-03-15T16:48:31.508Z,8.60
2023-03-15T16:51:33.856Z,8.70
2023-03-15T16:54:41.196Z,10.30
2023-03-15T16:57:43.347Z,10.10
2023-03-15T17:03:46.681Z,7.60
2023-03-15T17:09:50.337Z,6.70
2023-03-15T17:15:53.665Z,8.10
2023-03-15T17:18:55.650Z,8.50
2023-03-15T17:21:57.269Z,9.30
2023-03-15T17:24:58.842Z,9.40
2023-03-15T17:28:00.556Z,10.30
2023-03-15T17:31:23.251Z,9.50
2023-03-15T17:34:23.723Z,11.30
2023-03-15T17:40:29.125Z,12.90
2023-03-15T17:43:30.806Z,11.60
2023-03-15T17:52:36.186Z,17.10
2023-03-15T17:55:38.053Z,18.10
2023-03-15T17:58:39.696Z,18.30
2023-03-15T18:01:41.464Z,18.60
2023-03-15T18:04:43.410Z,19.30
2023-03-15T18:07:57.799Z,19.00
2023-03-15T18:11:00.309Z,22.20
2023-03-15T18:14:03.499Z,21.20
2023-03-15T18:17:05.082Z,24.50
2023-03-15T18:20:08.911Z,22.70
2023-03-15T18:23:14.850Z,22.10
2023-03-15T18:26:17.117Z,23.90
2023-03-15T18:29:18.710Z,24.10
2023-03-15T18:35:26.096Z,28.60
2023-03-15T18:38:27.767Z,28.30
2023-03-15T18:44:31.627Z,26.80
2023-03-15T18:47:33.441Z,32.40
2023-03-15T18:50:35.686Z,73.40
2023-03-15T18:53:37.345Z,75.30
2023-03-15T18:56:39.143Z,40.40
2023-03-15T19:02:45.516Z,26.10
2023-03-15T19:05:47.468Z,20.60
2023-03-15T19:08:49.503Z,17.90
2023-03-15T19:11:51.239Z,20.70
2023-03-15T19:17:54.545Z,18.40
2023-03-15T19:23:58.358Z,20.70
2023-03-15T19:27:00.048Z,20.70
2023-03-15T19:33:03.976Z,17.90
2023-03-15T19:36:06.083Z,18.20
2023-03-15T19:39:07.709Z,20.50
2023-03-15T19:42:09.242Z,19.90
2023-03-15T19:45:11.425Z,20.60
2023-03-15T19:48:15.382Z,18.90
2023-03-15T19:51:18.077Z,18.70
2023-03-15T19:54:19.631Z,18.70
2023-03-15T19:57:21.593Z,18.20
2023-03-15T20:00:23.886Z,18.80
2023-03-15T20:03:25.813Z,19.20
2023-03-15T20:06:27.340Z,17.00
2023-03-15T20:09:28.878Z,17.70
2023-03-15T20:12:30.744Z,16.90
2023-03-15T20:15:32.450Z,19.30
2023-03-15T20:18:34.078Z,20.70
2023-03-15T20:21:35.751Z,18.30
2023-03-15T20:24:37.429Z,17.90
2023-03-15T20:27:39.198Z,20.20
2023-03-15T20:30:44.158Z,19.60
2023-03-15T20:33:48.904Z,21.00
2023-03-15T20:36:50.766Z,24.50
2023-03-15T20:39:52.326Z,24.70
2023-03-15T20:42:54.065Z,28.10
2023-03-15T20:45:56.875Z,29.90
2023-03-15T20:48:58.541Z,29.60
2023-03-15T20:52:00.174Z,28.70
2023-03-15T20:55:01.828Z,27.00
2023-03-15T20:58:03.531Z,30.50
2023-03-15T21:01:07.231Z,26.60
2023-03-15T21:04:08.866Z,25.80
2023-03-15T21:07:13.429Z,27.20
2023-03-15T21:10:15.337Z,27.40
2023-03-15T21:13:16.974Z,25.40
2023-03-15T21:16:18.698Z,22.60
2023-03-15T21:22:25.387Z,19.60
2023-03-15T21:25:27.013Z,18.30
2023-03-15T21:28:29.423Z,18.30
2023-03-15T21:31:31.210Z,20.90
2023-03-15T21:37:34.668Z,25.20
2023-03-15T21:43:37.985Z,30.00
2023-03-15T21:49:41.217Z,30.50
2023-03-15T21:52:42.784Z,33.90
2023-03-15T21:55:44.337Z,36.70
2023-03-15T21:58:45.837Z,33.20
2023-03-15T22:01:47.597Z,32.60
2023-03-15T22:04:49.157Z,33.90
2023-03-15T22:07:50.793Z,31.70
2023-03-15T22:10:54.083Z,31.50
2023-03-15T22:13:55.715Z,32.20
2023-03-15T22:16:57.341Z,34.60
2023-03-15T22:23:00.604Z,34.60
2023-03-15T22:26:02.177Z,34.60
2023-03-15T22:29:03.813Z,34.40
2023-03-15T22:32:06.274Z,34.40
2023-03-15T22:35:08.151Z,34.60
2023-03-15T22:38:09.864Z,38.20
2023-03-15T22:41:11.734Z,37.70
2023-03-15T22:44:13.307Z,36.00
2023-03-15T22:47:14.922Z,37.90
2023-03-15T22:50:16.537Z,37.00
2023-03-15T22:53:18.199Z,37.00
2023-03-15T22:59:21.313Z,36.50
2023-03-15T23:02:22.778Z,34.70
2023-03-15T23:05:24.468Z,35.50
2023-03-15T23:08:26.077Z,34.60
2023-03-15T23:11:27.740Z,33.90
2023-03-15T23:14:29.334Z,34.70
2023-03-15T23:17:30.928Z,35.30
2023-03-15T23:20:33.146Z,33.20
2023-03-15T23:23:37.124Z,30.70
2023-03-15T23:26:38.719Z,30.20
2023-03-15T23:29:53.276Z,27.20
2023-03-15T23:32:56.076Z,28.80
2023-03-15T23:38:59.374Z,27.00
2023-03-15T23:42:01.167Z,25.40
2023-03-15T23:48:04.492Z,20.40
2023-03-15T23:51:06.131Z,15.40
2023-03-15T23:54:07.659Z,13.60
2023-03-15T23:57:11.848Z,15.00
